createdAt,value
2023-10-09T00:02:48.897Z,58.59
2023-10-09T00:05:53.951Z,58.57
2023-10-09T00:08:58.677Z,58.52
2023-10-09T00:12:00.922Z,58.53
2023-10-09T00:15:11.715Z,58.60
2023-10-09T00:18:13.536Z,58.51
2023-10-09T00:21:16.534Z,58.57
2023-10-09T00:24:26.978Z,58.72
2023-10-09T00:27:31.945Z,58.59
2023-10-09T00:30:33.753Z,58.69
2023-10-09T00:33:35.629Z,58.72
2023-10-09T00:36:50.550Z,58.87
2023-10-09T00:39:59.061Z,58.86
2023-10-09T00:43:06.771Z,58.88
2023-10-09T00:46:24.442Z,58.90
2023-10-09T00:49:27.927Z,58.82
2023-10-09T00:52:33.853Z,58.83
2023-10-09T00:55:44.602Z,58.90
2023-10-09T00:58:50.377Z,58.95
2023-10-09T01:02:05.504Z,58.94
2023-10-09T01:05:19.166Z,58.88
2023-10-09T01:08:40.029Z,58.99
2023-10-09T01:12:00.290Z,58.94
2023-10-09T01:15:02.543Z,59.08
2023-10-09T01:18:05.366Z,59.13
2023-10-09T01:21:07.477Z,59.29
2023-10-09T01:24:09.333Z,59.36
2023-10-09T01:27:17.493Z,59.49
2023-10-09T01:30:20.709Z,59.71
2023-10-09T01:33:27.191Z,59.72
2023-10-09T01:36:32.561Z,59.89
2023-10-09T01:39:40.475Z,59.97
2023-10-09T01:42:48.196Z,60.04
2023-10-09T01:45:52.534Z,60.10
2023-10-09T01:48:55.195Z,60.09
2023-10-09T01:52:04.229Z,60.00
2023-10-09T01:55:10.049Z,60.10
2023-10-09T01:58:32.405Z,60.21
2023-10-09T02:01:34.110Z,60.34
2023-10-09T02:04:35.794Z,60.42
2023-10-09T02:07:41.273Z,60.58
2023-10-09T02:10:48.772Z,60.51
2023-10-09T02:14:01.468Z,60.79
2023-10-09T02:17:03.155Z,60.82
2023-10-09T02:20:18.452Z,60.88
2023-10-09T02:23:24.716Z,60.83
2023-10-09T02:26:27.356Z,60.96
2023-10-09T02:29:35.538Z,61.10
2023-10-09T02:32:37.190Z,61.19
2023-10-09T02:35:39.328Z,61.13
2023-10-09T02:38:42.873Z,61.21
2023-10-09T02:41:51.066Z,61.26
2023-10-09T02:44:52.937Z,61.19
2023-10-09T02:47:56.247Z,61.25
2023-10-09T02:50:58.198Z,61.18
2023-10-09T02:54:22.987Z,61.29
2023-10-09T02:57:28.498Z,61.31
2023-10-09T03:00:31.800Z,61.27
2023-10-09T03:03:36.202Z,61.37
2023-10-09T03:06:40.831Z,61.30
2023-10-09T03:09:42.477Z,61.37
2023-10-09T03:12:44.891Z,61.33
2023-10-09T03:15:49.003Z,61.63
2023-10-09T03:18:53.063Z,61.58
2023-10-09T03:21:57.910Z,61.70
2023-10-09T03:24:59.490Z,61.95
2023-10-09T03:28:01.701Z,61.89
2023-10-09T03:31:03.401Z,61.93
2023-10-09T03:34:06.906Z,62.02
2023-10-09T03:37:21.640Z,62.10
2023-10-09T03:40:25.358Z,62.02
2023-10-09T03:43:32.807Z,61.88
2023-10-09T03:46:37.262Z,61.91
2023-10-09T03:49:39.879Z,61.87
2023-10-09T03:52:41.467Z,61.76
2023-10-09T03:55:43.126Z,61.83
2023-10-09T03:58:51.429Z,61.85
2023-10-09T04:01:53.734Z,61.84
2023-10-09T04:04:55.415Z,62.00
2023-10-09T04:07:59.245Z,62.02
2023-10-09T04:11:04.690Z,61.92
2023-10-09T04:14:12.479Z,62.08
2023-10-09T04:17:23.114Z,61.96
2023-10-09T04:20:24.771Z,62.02
2023-10-09T04:23:36.425Z,62.01
2023-10-09T04:26:44.900Z,61.89
2023-10-09T04:29:50.228Z,61.99
2023-10-09T04:32:55.799Z,62.08
2023-10-09T04:36:22.768Z,62.04
2023-10-09T04:39:30.740Z,61.95
2023-10-09T04:42:38.310Z,61.99
2023-10-09T04:45:45.942Z,61.88
2023-10-09T04:48:47.572Z,61.91
2023-10-09T04:52:05.035Z,61.87
2023-10-09T04:55:11.201Z,61.89
2023-10-09T04:58:24.440Z,61.87
2023-10-09T05:01:36.599Z,61.97
2023-10-09T05:04:38.321Z,62.00
2023-10-09T05:07:55.413Z,62.00
2023-10-09T05:10:58.852Z,62.05
2023-10-09T05:14:12.508Z,62.03
2023-10-09T05:17:17.213Z,62.10
2023-10-09T05:20:42.188Z,62.04
2023-10-09T05:23:52.712Z,62.10
2023-10-09T05:27:14.384Z,62.14
2023-10-09T05:30:25.574Z,62.33
2023-10-09T05:33:33.830Z,62.33
2023-10-09T05:36:35.925Z,62.39
2023-10-09T05:39:44.087Z,62.42
2023-10-09T05:42:57.985Z,62.38
2023-10-09T05:46:08.547Z,62.49
2023-10-09T05:49:20.119Z,62.51
2023-10-09T05:52:41.023Z,62.61
2023-10-09T05:56:01.044Z,62.73
2023-10-09T05:59:21.146Z,62.84
2023-10-09T06:02:48.738Z,62.72
2023-10-09T06:05:57.674Z,62.86
2023-10-09T06:09:15.944Z,62.94
2023-10-09T06:12:32.819Z,63.03
2023-10-09T06:15:44.078Z,63.13
2023-10-09T06:18:54.576Z,63.16
2023-10-09T06:22:04.103Z,63.17
2023-10-09T06:25:13.048Z,63.31
2023-10-09T06:28:14.654Z,63.44
2023-10-09T06:31:51.072Z,63.49
2023-10-09T06:34:57.381Z,63.47
2023-10-09T06:38:03.112Z,63.61
2023-10-09T06:41:04.917Z,63.58
2023-10-09T06:44:07.416Z,63.60
2023-10-09T06:47:10.426Z,63.65
2023-10-09T06:50:21.497Z,63.84
2023-10-09T06:53:41.254Z,63.97
2023-10-09T06:56:54.952Z,64.09
2023-10-09T07:00:15.190Z,64.20
2023-10-09T07:03:20.352Z,64.33
2023-10-09T07:06:25.102Z,64.42
2023-10-09T07:09:42.801Z,64.48
2023-10-09T07:12:44.831Z,64.59
2023-10-09T07:16:04.979Z,64.71
2023-10-09T07:19:25.113Z,64.80
2023-10-09T07:22:36.972Z,64.87
2023-10-09T07:25:41.563Z,65.04
2023-10-09T07:28:43.994Z,65.08
2023-10-09T07:34:53.797Z,65.24
2023-10-09T07:37:55.595Z,65.33
2023-10-09T07:41:20.539Z,65.49
2023-10-09T07:44:37.763Z,65.45
2023-10-09T07:47:58.154Z,65.68
2023-10-09T07:51:00.120Z,65.69
2023-10-09T07:54:08.839Z,65.64
2023-10-09T07:57:16.480Z,65.74
2023-10-09T08:00:36.889Z,65.82
2023-10-09T08:03:38.692Z,65.93
2023-10-09T08:07:04.196Z,65.93
2023-10-09T08:10:14.395Z,66.03
2023-10-09T08:13:51.708Z,66.06
2023-10-09T08:17:10.985Z,66.14
2023-10-09T08:20:13.158Z,66.13
2023-10-09T08:23:29.544Z,66.17
2023-10-09T08:26:47.653Z,66.37
2023-10-09T08:29:49.976Z,66.61
2023-10-09T08:36:09.079Z,66.63
2023-10-09T08:39:40.352Z,66.57
2023-10-09T08:42:43.319Z,66.63
2023-10-09T08:45:54.908Z,66.57
2023-10-09T08:48:59.924Z,66.62
2023-10-09T08:52:03.753Z,66.44
2023-10-09T08:55:06.350Z,66.57
2023-10-09T08:58:21.536Z,66.33
2023-10-09T09:01:25.152Z,66.22
2023-10-09T09:04:41.531Z,66.07
2023-10-09T09:07:43.464Z,66.13
2023-10-09T09:10:47.552Z,66.31
2023-10-09T09:14:12.957Z,66.32
2023-10-09T09:17:31.205Z,66.26
2023-10-09T09:20:40.632Z,66.32
2023-10-09T09:23:55.178Z,66.37
2023-10-09T09:27:10.084Z,66.50
2023-10-09T09:30:24.589Z,66.49
2023-10-09T09:33:31.211Z,66.44
2023-10-09T09:36:34.832Z,66.63
2023-10-09T09:39:49.290Z,66.66
2023-10-09T09:43:05.228Z,66.71
2023-10-09T09:46:08.697Z,66.74
2023-10-09T09:49:17.323Z,66.86
2023-10-09T09:52:19.753Z,66.82
2023-10-09T09:55:31.395Z,66.87
2023-10-09T09:58:44.381Z,66.96
2023-10-09T10:01:57.305Z,66.99
2023-10-09T10:05:03.817Z,67.02
2023-10-09T10:08:12.552Z,67.06
2023-10-09T10:11:52.400Z,66.98
2023-10-09T10:14:59.587Z,67.04
2023-10-09T10:18:01.359Z,67.25
2023-10-09T10:21:16.581Z,67.34
2023-10-09T10:24:35.987Z,67.36
2023-10-09T10:28:01.134Z,67.46
2023-10-09T10:31:04.871Z,67.44
2023-10-09T10:34:11.077Z,67.65
2023-10-09T10:37:13.843Z,67.75
2023-10-09T10:40:38.770Z,67.80
2023-10-09T10:43:53.422Z,67.82
2023-10-09T10:46:55.331Z,67.88
2023-10-09T10:50:00.213Z,67.80
2023-10-09T10:53:17.102Z,67.82
2023-10-09T10:56:19.445Z,67.93
2023-10-09T10:59:24.694Z,67.91
2023-10-09T11:02:28.650Z,68.04
2023-10-09T11:05:39.486Z,68.05
2023-10-09T11:09:09.275Z,68.06
2023-10-09T11:12:22.175Z,68.02
2023-10-09T11:15:47.954Z,68.07
2023-10-09T11:18:49.768Z,68.23
2023-10-09T11:21:59.148Z,68.15
2023-10-09T11:25:11.524Z,68.00
2023-10-09T11:28:48.383Z,68.09
2023-10-09T11:32:10.109Z,68.14
2023-10-09T11:35:21.191Z,68.14
2023-10-09T11:38:23.704Z,68.29
2023-10-09T11:41:26.883Z,68.36
2023-10-09T11:44:39.727Z,68.41
2023-10-09T11:47:54.749Z,68.35
2023-10-09T11:51:05.410Z,68.45
2023-10-09T11:54:09.190Z,68.50
2023-10-09T11:57:11.138Z,68.59
2023-10-09T12:00:25.154Z,68.63
2023-10-09T12:03:30.121Z,68.73
2023-10-09T12:06:32.795Z,68.80
2023-10-09T12:09:37.760Z,68.77
2023-10-09T12:12:40.384Z,68.77
2023-10-09T12:15:46.084Z,68.84
2023-10-09T12:18:53.509Z,68.87
2023-10-09T12:21:55.108Z,68.88
2023-10-09T12:24:57.828Z,68.99
2023-10-09T12:28:02.654Z,69.00
2023-10-09T12:31:04.365Z,69.07
2023-10-09T12:34:06.111Z,69.12
2023-10-09T12:37:07.891Z,69.11
2023-10-09T12:40:11.226Z,69.08
2023-10-09T12:43:20.249Z,69.12
2023-10-09T12:46:26.100Z,69.19
2023-10-09T12:49:27.761Z,69.25
2023-10-09T12:52:30.218Z,69.38
2023-10-09T12:55:35.639Z,69.41
2023-10-09T12:58:38.687Z,69.44
2023-10-09T13:01:45.495Z,69.33
2023-10-09T13:04:47.253Z,69.47
2023-10-09T13:07:49.206Z,69.54
2023-10-09T13:10:59.195Z,69.58
2023-10-09T13:14:12.152Z,70.66
2023-10-09T13:17:14.185Z,70.38
2023-10-09T13:20:16.702Z,70.02
2023-10-09T13:23:18.534Z,69.92
2023-10-09T13:26:36.498Z,69.94
2023-10-09T13:29:41.798Z,69.89
2023-10-09T13:32:49.024Z,69.99
2023-10-09T13:35:51.381Z,70.02
2023-10-09T13:38:56.988Z,69.93
2023-10-09T13:42:01.288Z,69.98
2023-10-09T13:45:16.181Z,69.96
2023-10-09T13:48:18.333Z,70.04
2023-10-09T13:51:24.352Z,70.17
2023-10-09T13:54:39.939Z,70.17
2023-10-09T13:57:45.909Z,70.11
2023-10-09T14:00:50.606Z,70.15
2023-10-09T14:03:54.085Z,70.15
2023-10-09T14:07:01.950Z,70.21
2023-10-09T14:10:26.324Z,70.29
2023-10-09T14:13:29.398Z,70.21
2023-10-09T14:16:33.669Z,70.26
2023-10-09T14:19:35.683Z,70.25
2023-10-09T14:22:38.839Z,70.31
2023-10-09T14:25:40.883Z,70.26
2023-10-09T14:28:43.413Z,70.42
2023-10-09T14:31:49.765Z,70.42
2023-10-09T14:34:51.845Z,70.50
2023-10-09T14:37:54.323Z,70.58
2023-10-09T14:40:59.705Z,70.59
2023-10-09T14:44:01.519Z,70.64
2023-10-09T14:47:06.040Z,70.65
2023-10-09T14:50:09.749Z,70.72
2023-10-09T14:53:13.572Z,70.71
2023-10-09T14:56:17.610Z,70.85
2023-10-09T14:59:19.929Z,70.82
2023-10-09T15:02:24.380Z,70.88
2023-10-09T15:05:26.079Z,70.84
2023-10-09T15:08:27.787Z,70.93
2023-10-09T15:11:29.475Z,70.96
2023-10-09T15:14:32.393Z,70.98
2023-10-09T15:17:33.996Z,71.02
2023-10-09T15:20:35.932Z,71.03
2023-10-09T15:23:38.039Z,71.12
2023-10-09T15:26:40.471Z,71.07
2023-10-09T15:29:45.020Z,71.22
2023-10-09T15:32:46.807Z,71.15
2023-10-09T15:35:50.170Z,71.25
2023-10-09T15:38:52.090Z,71.23
2023-10-09T15:41:54.011Z,71.20
2023-10-09T15:48:46.596Z,71.33
2023-10-09T15:51:54.420Z,71.47
2023-10-09T16:09:29.201Z,71.56
2023-10-09T16:12:32.019Z,71.52
2023-10-09T16:16:14.970Z,71.50
2023-10-09T16:19:16.814Z,71.55
2023-10-09T16:22:18.590Z,71.65
2023-10-09T16:25:24.633Z,71.74
2023-10-09T16:28:28.009Z,71.73
2023-10-09T16:31:45.053Z,71.87
2023-10-09T16:34:47.533Z,71.93
2023-10-09T16:37:56.152Z,72.00
2023-10-09T16:41:02.064Z,72.11
2023-10-09T16:44:05.627Z,72.03
2023-10-09T16:47:09.575Z,72.02
2023-10-09T16:50:22.786Z,72.08
2023-10-09T16:53:24.906Z,72.07
2023-10-09T16:56:33.781Z,72.05
2023-10-09T17:03:31.344Z,72.17
2023-10-09T17:06:35.229Z,72.21
2023-10-09T17:09:41.584Z,72.25
2023-10-09T17:12:46.913Z,72.25
2023-10-09T17:15:53.476Z,72.29
2023-10-09T17:18:57.215Z,72.25
2023-10-09T17:22:00.414Z,72.16
2023-10-09T17:25:03.537Z,72.33
2023-10-09T17:28:05.213Z,72.27
2023-10-09T17:35:32.036Z,72.26
2023-10-09T17:42:53.681Z,72.26
2023-10-09T17:45:55.415Z,72.24
2023-10-09T17:48:57.046Z,72.20
2023-10-09T17:52:01.125Z,72.30
2023-10-09T17:55:06.757Z,72.30
2023-10-09T17:58:08.456Z,72.38
2023-10-09T18:01:10.108Z,72.25
2023-10-09T18:04:14.335Z,72.24
2023-10-09T18:07:19.403Z,72.29
2023-10-09T18:10:22.288Z,72.29
2023-10-09T18:13:27.653Z,72.34
2023-10-09T18:16:29.977Z,72.35
2023-10-09T18:19:39.855Z,72.35
2023-10-09T18:22:56.308Z,72.35
2023-10-09T18:25:58.999Z,72.33
2023-10-09T18:29:28.967Z,72.41
2023-10-09T18:33:21.193Z,72.46
2023-10-09T18:36:23.223Z,72.42
2023-10-09T18:39:25.009Z,72.49
2023-10-09T18:42:29.283Z,72.50
2023-10-09T18:45:34.446Z,72.48
2023-10-09T18:48:36.123Z,72.46
2023-10-09T18:51:38.653Z,72.42
2023-10-09T18:54:41.739Z,72.48
2023-10-09T18:57:43.580Z,72.55
2023-10-09T19:04:53.767Z,72.49
2023-10-09T19:07:58.751Z,72.58
2023-10-09T19:11:02.209Z,72.45
2023-10-09T19:14:08.810Z,72.52
2023-10-09T19:17:12.098Z,72.55
2023-10-09T19:20:17.239Z,72.63
2023-10-09T19:29:12.411Z,72.66
2023-10-09T19:32:36.874Z,72.64
2023-10-09T19:35:47.598Z,72.73
2023-10-09T19:38:53.660Z,72.64
2023-10-09T19:42:49.053Z,72.71
2023-10-09T19:45:52.388Z,72.78
2023-10-09T19:48:56.382Z,72.76
2023-10-09T19:52:10.120Z,72.78
2023-10-09T19:55:13.482Z,72.74
2023-10-09T19:58:16.627Z,72.73
2023-10-09T20:13:40.210Z,72.70
2023-10-09T20:16:55.439Z,72.73
2023-10-09T20:19:58.964Z,72.74
2023-10-09T20:24:18.498Z,72.80
2023-10-09T20:27:53.399Z,72.71
2023-10-09T20:30:55.024Z,72.84
2023-10-09T20:34:20.841Z,72.83
2023-10-09T20:37:22.524Z,72.84
2023-10-09T20:44:44.155Z,72.83
2023-10-09T20:47:47.012Z,72.92
2023-10-09T20:50:49.096Z,73.00
2023-10-09T20:54:09.452Z,73.02
2023-10-09T20:57:11.056Z,73.03
2023-10-09T21:00:19.695Z,73.09
2023-10-09T21:03:30.651Z,73.11
2023-10-09T21:06:42.606Z,73.13
2023-10-09T21:09:50.552Z,73.09
2023-10-09T21:12:52.558Z,73.10
2023-10-09T21:15:54.424Z,73.08
2023-10-09T21:18:56.410Z,73.15
2023-10-09T21:21:59.938Z,73.22
2023-10-09T21:25:01.749Z,73.25
2023-10-09T21:28:03.621Z,73.30
2023-10-09T21:31:16.215Z,73.34
2023-10-09T21:36:27.869Z,73.26
2023-10-09T21:39:29.667Z,73.26
2023-10-09T21:42:31.478Z,73.22
2023-10-09T21:45:42.901Z,73.23
2023-10-09T21:48:44.577Z,73.24
2023-10-09T21:51:46.361Z,73.23
2023-10-09T21:54:48.066Z,73.25
2023-10-09T21:57:53.389Z,73.27
2023-10-09T22:00:57.259Z,73.28
2023-10-09T22:03:59.034Z,73.28
2023-10-09T22:07:00.819Z,73.34
2023-10-09T22:10:03.485Z,73.40
2023-10-09T22:13:08.288Z,73.40
2023-10-09T22:16:10.030Z,73.43
2023-10-09T22:19:14.684Z,73.40
2023-10-09T22:22:22.827Z,73.38
2023-10-09T22:25:25.884Z,73.44
2023-10-09T22:28:28.808Z,73.48
2023-10-09T22:31:30.507Z,73.49
2023-10-09T22:34:32.817Z,73.46
2023-10-09T22:37:37.829Z,73.48
2023-10-09T22:40:39.807Z,73.51
2023-10-09T22:43:41.502Z,73.51
2023-10-09T22:46:43.088Z,73.47
2023-10-09T22:49:52.928Z,73.53
2023-10-09T22:52:54.598Z,73.59
2023-10-09T22:55:56.293Z,73.63
2023-10-09T22:58:59.393Z,73.71
2023-10-09T23:02:01.404Z,73.66
2023-10-09T23:05:06.151Z,73.69
2023-10-09T23:08:17.066Z,73.63
2023-10-09T23:11:25.797Z,73.60
2023-10-09T23:14:31.631Z,73.66
2023-10-09T23:17:47.226Z,73.63
2023-10-09T23:20:51.087Z,73.68
2023-10-09T23:24:09.059Z,73.63
2023-10-09T23:27:26.284Z,73.67
2023-10-09T23:30:28.396Z,73.79
2023-10-09T23:33:30.668Z,73.70
2023-10-09T23:36:42.395Z,73.72
2023-10-09T23:39:53.714Z,73.70
2023-10-09T23:42:58.431Z,73.70
2023-10-09T23:53:18.360Z,73.75
2023-10-09T23:56:39.777Z,73.80
2023-10-09T23:59:51.838Z,73.88
